sensor_id;sensor_type;location;lat;lon;timestamp;pressure;altitude;pressure_sealevel;temperature;humidity
76352;BME280;65179;47.786;19.138;2023-08-06T00:01:59;98951.75;;;21.40;93.10
76352;BME280;65179;47.786;19.138;2023-08-06T00:04:25;98946.06;;;21.45;92.80
76352;BME280;65179;47.786;19.138;2023-08-06T00:06:50;98937.44;;;21.46;92.67
76352;BME280;65179;47.786;19.138;2023-08-06T00:09:16;98943.66;;;21.43;93.02
76352;BME280;65179;47.786;19.138;2023-08-06T00:11:41;98947.38;;;21.30;93.34
76352;BME280;65179;47.786;19.138;2023-08-06T00:14:09;98949.47;;;21.33;93.41
76352;BME280;65179;47.786;19.138;2023-08-06T00:16:34;98954.03;;;21.29;93.36
76352;BME280;65179;47.786;19.138;2023-08-06T00:19:00;98950.63;;;21.15;94.30
76352;BME280;65179;47.786;19.138;2023-08-06T00:21:25;98960.53;;;21.25;94.18
76352;BME280;65179;47.786;19.138;2023-08-06T00:23:50;98961.03;;;21.27;93.93
76352;BME280;65179;47.786;19.138;2023-08-06T00:26:17;98964.09;;;21.17;93.88
76352;BME280;65179;47.786;19.138;2023-08-06T00:28:42;98975.16;;;21.25;93.79
76352;BME280;65179;47.786;19.138;2023-08-06T00:31:08;98967.06;;;21.29;93.99
76352;BME280;65179;47.786;19.138;2023-08-06T00:33:33;98966.06;;;21.33;93.58
76352;BME280;65179;47.786;19.138;2023-08-06T00:35:58;98959.06;;;21.19;93.72
76352;BME280;65179;47.786;19.138;2023-08-06T00:38:24;98971.56;;;21.16;93.91
76352;BME280;65179;47.786;19.138;2023-08-06T00:40:49;98972.37;;;21.17;93.72
76352;BME280;65179;47.786;19.138;2023-08-06T00:43:15;98965.25;;;21.16;93.72
76352;BME280;65179;47.786;19.138;2023-08-06T00:45:40;98962.66;;;21.10;93.87
76352;BME280;65179;47.786;19.138;2023-08-06T00:48:06;98967.69;;;21.08;94.13
76352;BME280;65179;47.786;19.138;2023-08-06T00:50:32;98945.94;;;21.07;94.33
76352;BME280;65179;47.786;19.138;2023-08-06T00:52:58;98943.97;;;21.07;94.45
76352;BME280;65179;47.786;19.138;2023-08-06T00:55:24;98943.91;;;20.99;95.29
76352;BME280;65179;47.786;19.138;2023-08-06T00:57:50;98939.59;;;21.06;94.91
76352;BME280;65179;47.786;19.138;2023-08-06T01:00:18;98935.53;;;21.04;95.06
76352;BME280;65179;47.786;19.138;2023-08-06T01:02:45;98924.94;;;20.97;95.25
76352;BME280;65179;47.786;19.138;2023-08-06T01:05:11;98929.81;;;21.00;94.85
76352;BME280;65179;47.786;19.138;2023-08-06T01:13:35;98917.47;;;20.89;95.80
76352;BME280;65179;47.786;19.138;2023-08-06T01:16:03;98912.72;;;20.90;95.99
76352;BME280;65179;47.786;19.138;2023-08-06T01:18:31;98916.97;;;20.87;95.83
76352;BME280;65179;47.786;19.138;2023-08-06T01:20:56;98906.56;;;20.67;96.63
76352;BME280;65179;47.786;19.138;2023-08-06T01:23:22;98901.00;;;20.59;97.54
76352;BME280;65179;47.786;19.138;2023-08-06T01:31:16;98892.41;;;20.60;97.38
76352;BME280;65179;47.786;19.138;2023-08-06T01:33:45;98888.34;;;20.66;97.16
76352;BME280;65179;47.786;19.138;2023-08-06T01:36:17;98885.94;;;20.73;96.59
76352;BME280;65179;47.786;19.138;2023-08-06T01:38:43;98890.13;;;20.62;96.59
76352;BME280;65179;47.786;19.138;2023-08-06T01:41:09;98884.62;;;20.62;96.69
76352;BME280;65179;47.786;19.138;2023-08-06T01:43:34;98871.13;;;20.44;96.86
76352;BME280;65179;47.786;19.138;2023-08-06T01:46:00;98875.03;;;20.51;96.95
76352;BME280;65179;47.786;19.138;2023-08-06T01:48:25;98863.81;;;20.39;96.80
76352;BME280;65179;47.786;19.138;2023-08-06T01:50:51;98857.97;;;20.32;97.36
76352;BME280;65179;47.786;19.138;2023-08-06T01:53:16;98864.47;;;20.45;96.87
76352;BME280;65179;47.786;19.138;2023-08-06T01:55:41;98859.28;;;20.52;96.49
76352;BME280;65179;47.786;19.138;2023-08-06T01:58:07;98855.72;;;20.51;96.66
76352;BME280;65179;47.786;19.138;2023-08-06T02:00:32;98853.13;;;20.46;96.52
76352;BME280;65179;47.786;19.138;2023-08-06T02:02:57;98839.16;;;20.51;96.66
76352;BME280;65179;47.786;19.138;2023-08-06T02:05:23;98838.66;;;20.40;96.48
76352;BME280;65179;47.786;19.138;2023-08-06T02:07:48;98825.69;;;20.32;96.61
76352;BME280;65179;47.786;19.138;2023-08-06T02:10:14;98817.09;;;20.34;96.71
76352;BME280;65179;47.786;19.138;2023-08-06T02:12:39;98824.53;;;20.25;96.85
76352;BME280;65179;47.786;19.138;2023-08-06T02:15:05;98826.16;;;20.26;97.06
76352;BME280;65179;47.786;19.138;2023-08-06T02:17:31;98829.09;;;20.38;96.79
76352;BME280;65179;47.786;19.138;2023-08-06T02:19:56;98826.50;;;20.33;96.75
76352;BME280;65179;47.786;19.138;2023-08-06T02:22:22;98825.72;;;20.41;96.79
76352;BME280;65179;47.786;19.138;2023-08-06T02:24:49;98820.03;;;20.37;96.49
76352;BME280;65179;47.786;19.138;2023-08-06T02:27:14;98818.25;;;20.33;96.59
76352;BME280;65179;47.786;19.138;2023-08-06T02:29:40;98810.69;;;20.16;96.64
76352;BME280;65179;47.786;19.138;2023-08-06T02:32:07;98818.19;;;20.16;96.54
76352;BME280;65179;47.786;19.138;2023-08-06T02:34:32;98815.75;;;20.23;96.50
76352;BME280;65179;47.786;19.138;2023-08-06T02:36:58;98820.72;;;20.04;96.76
76352;BME280;65179;47.786;19.138;2023-08-06T02:39:23;98827.22;;;20.16;96.58
76352;BME280;65179;47.786;19.138;2023-08-06T02:41:49;98809.06;;;20.07;96.43
76352;BME280;65179;47.786;19.138;2023-08-06T02:44:14;98816.03;;;20.13;96.46
76352;BME280;65179;47.786;19.138;2023-08-06T02:46:39;98820.09;;;20.07;96.68
76352;BME280;65179;47.786;19.138;2023-08-06T02:49:06;98805.00;;;20.04;97.15
76352;BME280;65179;47.786;19.138;2023-08-06T02:51:31;98804.03;;;20.09;97.31
76352;BME280;65179;47.786;19.138;2023-08-06T02:53:57;98790.75;;;20.11;97.15
76352;BME280;65179;47.786;19.138;2023-08-06T02:56:22;98794.97;;;20.17;97.23
76352;BME280;65179;47.786;19.138;2023-08-06T02:58:47;98794.97;;;20.17;97.16
76352;BME280;65179;47.786;19.138;2023-08-06T03:01:13;98796.28;;;20.19;97.43
76352;BME280;65179;47.786;19.138;2023-08-06T03:03:39;98792.22;;;20.17;97.37
76352;BME280;65179;47.786;19.138;2023-08-06T03:06:04;98793.09;;;20.26;97.13
76352;BME280;65179;47.786;19.138;2023-08-06T03:08:30;98798.22;;;20.19;96.81
76352;BME280;65179;47.786;19.138;2023-08-06T03:10:55;98801.50;;;20.21;97.06
76352;BME280;65179;47.786;19.138;2023-08-06T03:13:21;98801.50;;;20.21;97.32
76352;BME280;65179;47.786;19.138;2023-08-06T03:15:56;98796.97;;;20.25;97.11
76352;BME280;65179;47.786;19.138;2023-08-06T03:18:22;98789.22;;;20.27;97.04
76352;BME280;65179;47.786;19.138;2023-08-06T03:20:48;98789.69;;;20.20;97.24
76352;BME280;65179;47.786;19.138;2023-08-06T03:23:13;98787.38;;;20.14;98.18
76352;BME280;65179;47.786;19.138;2023-08-06T03:25:39;98786.34;;;20.10;98.01
76352;BME280;65179;47.786;19.138;2023-08-06T03:28:04;98781.84;;;20.05;98.51
76352;BME280;65179;47.786;19.138;2023-08-06T03:30:30;98774.34;;;20.06;98.64
76352;BME280;65179;47.786;19.138;2023-08-06T03:32:55;98764.16;;;20.15;98.22
76352;BME280;65179;47.786;19.138;2023-08-06T03:35:21;98753.63;;;20.17;97.91
76352;BME280;65179;47.786;19.138;2023-08-06T03:37:47;98758.97;;;20.13;98.12
76352;BME280;65179;47.786;19.138;2023-08-06T03:40:13;98763.69;;;20.13;98.11
76352;BME280;65179;47.786;19.138;2023-08-06T03:42:38;98767.72;;;20.07;98.40
76352;BME280;65179;47.786;19.138;2023-08-06T03:45:04;98768.84;;;20.06;98.39
76352;BME280;65179;47.786;19.138;2023-08-06T03:47:30;98773.72;;;20.09;98.80
76352;BME280;65179;47.786;19.138;2023-08-06T03:49:55;98771.59;;;20.06;98.60
76352;BME280;65179;47.786;19.138;2023-08-06T03:52:21;98767.88;;;20.02;98.57
76352;BME280;65179;47.786;19.138;2023-08-06T03:54:46;98762.00;;;19.95;99.22
76352;BME280;65179;47.786;19.138;2023-08-06T03:57:11;98766.06;;;19.89;99.18
76352;BME280;65179;47.786;19.138;2023-08-06T03:59:37;98766.06;;;19.89;98.79
76352;BME280;65179;47.786;19.138;2023-08-06T04:02:02;98767.69;;;19.90;98.33
76352;BME280;65179;47.786;19.138;2023-08-06T04:04:28;98753.28;;;20.01;98.42
76352;BME280;65179;47.786;19.138;2023-08-06T04:06:53;98752.78;;;20.08;98.23
76352;BME280;65179;47.786;19.138;2023-08-06T04:09:19;98751.34;;;20.10;97.79
76352;BME280;65179;47.786;19.138;2023-08-06T04:11:44;98742.56;;;20.00;99.09
76352;BME280;65179;47.786;19.138;2023-08-06T04:14:10;98745.97;;;19.97;98.77
76352;BME280;65179;47.786;19.138;2023-08-06T04:16:35;98739.50;;;20.10;98.60
76352;BME280;65179;47.786;19.138;2023-08-06T04:19:01;98736.59;;;20.06;98.41
76352;BME280;65179;47.786;19.138;2023-08-06T04:21:26;98740.50;;;20.14;98.06
76352;BME280;65179;47.786;19.138;2023-08-06T04:23:52;98729.47;;;20.14;98.37
76352;BME280;65179;47.786;19.138;2023-08-06T04:26:17;98734.81;;;20.19;97.87
76352;BME280;65179;47.786;19.138;2023-08-06T04:28:42;98733.34;;;20.04;98.34
76352;BME280;65179;47.786;19.138;2023-08-06T04:31:08;98714.69;;;20.01;98.63
76352;BME280;65179;47.786;19.138;2023-08-06T04:33:33;98714.22;;;20.08;98.71
76352;BME280;65179;47.786;19.138;2023-08-06T04:35:59;98715.22;;;20.12;98.43
76352;BME280;65179;47.786;19.138;2023-08-06T04:38:24;98703.34;;;19.94;98.54
76352;BME280;65179;47.786;19.138;2023-08-06T04:40:50;98701.72;;;19.85;99.58
76352;BME280;65179;47.786;19.138;2023-08-06T04:43:16;98701.25;;;20.00;99.24
76352;BME280;65179;47.786;19.138;2023-08-06T04:45:51;98699.13;;;19.97;99.46
76352;BME280;65179;47.786;19.138;2023-08-06T04:48:17;98713.06;;;19.83;100.00
76352;BME280;65179;47.786;19.138;2023-08-06T04:50:44;98710.59;;;19.82;100.00
76352;BME280;65179;47.786;19.138;2023-08-06T04:53:10;98710.50;;;19.47;100.00
76352;BME280;65179;47.786;19.138;2023-08-06T04:55:35;98708.47;;;19.61;100.00
76352;BME280;65179;47.786;19.138;2023-08-06T04:58:00;98705.22;;;19.59;100.00
76352;BME280;65179;47.786;19.138;2023-08-06T05:00:26;98698.22;;;19.53;100.00
76352;BME280;65179;47.786;19.138;2023-08-06T05:02:51;98705.50;;;19.49;100.00
76352;BME280;65179;47.786;19.138;2023-08-06T05:05:17;98699.16;;;19.40;100.00
76352;BME280;65179;47.786;19.138;2023-08-06T05:07:42;98706.44;;;19.45;100.00
76352;BME280;65179;47.786;19.138;2023-08-06T05:10:08;98712.06;;;19.31;100.00
76352;BME280;65179;47.786;19.138;2023-08-06T05:12:33;98709.25;;;19.23;100.00
76352;BME280;65179;47.786;19.138;2023-08-06T05:14:58;98705.91;;;19.04;100.00
76352;BME280;65179;47.786;19.138;2023-08-06T05:17:24;98710.66;;;19.12;100.00
76352;BME280;65179;47.786;19.138;2023-08-06T05:19:49;98703.81;;;19.01;100.00
76352;BME280;65179;47.786;19.138;2023-08-06T05:22:15;98709.25;;;18.92;100.00
76352;BME280;65179;47.786;19.138;2023-08-06T05:24:40;98716.81;;;18.86;100.00
76352;BME280;65179;47.786;19.138;2023-08-06T05:27:05;98715.84;;;18.82;100.00
76352;BME280;65179;47.786;19.138;2023-08-06T05:29:31;98715.25;;;18.94;100.00
76352;BME280;65179;47.786;19.138;2023-08-06T05:31:56;98708.00;;;18.98;99.43
76352;BME280;65179;47.786;19.138;2023-08-06T05:34:22;98717.47;;;18.83;99.41
76352;BME280;65179;47.786;19.138;2023-08-06T05:36:47;98714.72;;;18.83;99.48
76352;BME280;65179;47.786;19.138;2023-08-06T05:39:12;98713.66;;;18.71;99.05
76352;BME280;65179;47.786;19.138;2023-08-06T05:41:38;98716.22;;;18.67;99.27
76352;BME280;65179;47.786;19.138;2023-08-06T05:44:03;98715.66;;;18.57;99.42
76352;BME280;65179;47.786;19.138;2023-08-06T05:46:29;98714.16;;;18.51;99.01
76352;BME280;65179;47.786;19.138;2023-08-06T05:48:54;98713.41;;;18.59;98.87
76352;BME280;65179;47.786;19.138;2023-08-06T05:51:19;98712.47;;;18.63;98.41
76352;BME280;65179;47.786;19.138;2023-08-06T05:53:45;98713.91;;;18.61;98.06
76352;BME280;65179;47.786;19.138;2023-08-06T05:56:12;98718.78;;;18.64;97.90
76352;BME280;65179;47.786;19.138;2023-08-06T05:58:37;98712.03;;;18.70;97.86
76352;BME280;65179;47.786;19.138;2023-08-06T06:01:03;98717.84;;;18.68;97.78
76352;BME280;65179;47.786;19.138;2023-08-06T06:03:28;98716.91;;;18.73;97.95
76352;BME280;65179;47.786;19.138;2023-08-06T06:05:53;98709.78;;;18.72;97.68
76352;BME280;65179;47.786;19.138;2023-08-06T06:08:19;98709.16;;;18.75;97.40
76352;BME280;65179;47.786;19.138;2023-08-06T06:10:44;98704.34;;;18.80;97.53
76352;BME280;65179;47.786;19.138;2023-08-06T06:13:10;98702.22;;;18.77;97.53
76352;BME280;65179;47.786;19.138;2023-08-06T06:15:35;98704.66;;;18.79;97.41
76352;BME280;65179;47.786;19.138;2023-08-06T06:18:00;98707.69;;;18.69;97.12
76352;BME280;65179;47.786;19.138;2023-08-06T06:20:26;98705.97;;;18.81;96.86
76352;BME280;65179;47.786;19.138;2023-08-06T06:22:51;98704.00;;;18.82;96.47
76352;BME280;65179;47.786;19.138;2023-08-06T06:25:17;98693.41;;;18.67;96.60
76352;BME280;65179;47.786;19.138;2023-08-06T06:27:42;98700.03;;;18.66;96.50
76352;BME280;65179;47.786;19.138;2023-08-06T06:30:08;98704.81;;;18.82;96.46
76352;BME280;65179;47.786;19.138;2023-08-06T06:32:33;98706.91;;;18.77;96.11
76352;BME280;65179;47.786;19.138;2023-08-06T06:34:59;98699.78;;;18.76;96.29
76352;BME280;65179;47.786;19.138;2023-08-06T06:37:25;98696.03;;;18.72;95.67
76352;BME280;65179;47.786;19.138;2023-08-06T06:39:50;98701.22;;;18.73;96.26
76352;BME280;65179;47.786;19.138;2023-08-06T06:42:15;98706.66;;;18.65;95.40
76352;BME280;65179;47.786;19.138;2023-08-06T06:44:41;98709.22;;;18.61;95.94
76352;BME280;65179;47.786;19.138;2023-08-06T06:47:07;98708.03;;;18.54;96.00
76352;BME280;65179;47.786;19.138;2023-08-06T06:49:32;98708.50;;;18.47;95.58
76352;BME280;65179;47.786;19.138;2023-08-06T06:51:57;98716.50;;;18.44;95.95
76352;BME280;65179;47.786;19.138;2023-08-06T06:54:23;98723.78;;;18.26;97.05
76352;BME280;65179;47.786;19.138;2023-08-06T06:56:48;98724.69;;;18.35;96.34
76352;BME280;65179;47.786;19.138;2023-08-06T06:59:13;98736.50;;;18.36;96.26
76352;BME280;65179;47.786;19.138;2023-08-06T07:01:39;98734.00;;;18.26;96.24
76352;BME280;65179;47.786;19.138;2023-08-06T07:04:04;98737.66;;;18.21;96.37
76352;BME280;65179;47.786;19.138;2023-08-06T07:06:30;98731.69;;;18.05;97.65
76352;BME280;65179;47.786;19.138;2023-08-06T07:08:56;98727.78;;;18.20;96.66
76352;BME280;65179;47.786;19.138;2023-08-06T07:11:21;98729.94;;;18.23;96.88
76352;BME280;65179;47.786;19.138;2023-08-06T07:13:47;98728.44;;;18.03;98.01
76352;BME280;65179;47.786;19.138;2023-08-06T07:16:12;98728.63;;;18.07;97.17
76352;BME280;65179;47.786;19.138;2023-08-06T07:18:38;98730.97;;;18.13;96.89
76352;BME280;65179;47.786;19.138;2023-08-06T07:21:03;98737.19;;;18.05;96.68
76352;BME280;65179;47.786;19.138;2023-08-06T07:23:29;98731.81;;;18.00;97.06
76352;BME280;65179;47.786;19.138;2023-08-06T07:25:54;98730.19;;;17.99;97.55
76352;BME280;65179;47.786;19.138;2023-08-06T07:28:20;98731.13;;;17.95;97.55
76352;BME280;65179;47.786;19.138;2023-08-06T07:30:45;98726.88;;;18.11;97.08
76352;BME280;65179;47.786;19.138;2023-08-06T07:33:11;98723.72;;;18.17;96.79
76352;BME280;65179;47.786;19.138;2023-08-06T07:35:37;98722.53;;;18.32;96.62
76352;BME280;65179;47.786;19.138;2023-08-06T07:38:03;98730.22;;;18.22;96.11
76352;BME280;65179;47.786;19.138;2023-08-06T07:40:29;98738.41;;;18.35;97.20
76352;BME280;65179;47.786;19.138;2023-08-06T07:42:54;98738.34;;;18.27;96.53
76352;BME280;65179;47.786;19.138;2023-08-06T07:45:20;98738.25;;;18.32;96.92
76352;BME280;65179;47.786;19.138;2023-08-06T07:47:45;98735.37;;;18.01;96.96
76352;BME280;65179;47.786;19.138;2023-08-06T07:50:11;98731.91;;;17.95;98.43
76352;BME280;65179;47.786;19.138;2023-08-06T07:52:36;98732.12;;;17.99;98.37
76352;BME280;65179;47.786;19.138;2023-08-06T07:55:02;98733.53;;;17.96;98.16
76352;BME280;65179;47.786;19.138;2023-08-06T07:57:33;98729.16;;;17.95;97.79
76352;BME280;65179;47.786;19.138;2023-08-06T08:00:00;98736.91;;;17.93;97.87
76352;BME280;65179;47.786;19.138;2023-08-06T08:02:25;98731.19;;;18.03;97.41
76352;BME280;65179;47.786;19.138;2023-08-06T08:04:50;98731.19;;;18.03;97.10
76352;BME280;65179;47.786;19.138;2023-08-06T08:07:16;98725.31;;;17.96;97.19
76352;BME280;65179;47.786;19.138;2023-08-06T08:09:41;98729.56;;;18.02;96.74
76352;BME280;65179;47.786;19.138;2023-08-06T08:12:07;98718.69;;;17.97;97.09
76352;BME280;65179;47.786;19.138;2023-08-06T08:14:32;98710.31;;;18.02;96.78
76352;BME280;65179;47.786;19.138;2023-08-06T08:17:02;98712.87;;;18.12;96.95
76352;BME280;65179;47.786;19.138;2023-08-06T08:19:28;98701.28;;;18.02;96.86
76352;BME280;65179;47.786;19.138;2023-08-06T08:21:53;98711.66;;;18.05;96.42
76352;BME280;65179;47.786;19.138;2023-08-06T08:24:19;98705.06;;;17.92;97.42
76352;BME280;65179;47.786;19.138;2023-08-06T08:26:45;98699.69;;;17.87;97.52
76352;BME280;65179;47.786;19.138;2023-08-06T08:29:10;98702.31;;;18.06;97.66
76352;BME280;65179;47.786;19.138;2023-08-06T08:31:36;98699.50;;;18.19;96.68
76352;BME280;65179;47.786;19.138;2023-08-06T08:34:04;98714.00;;;18.34;96.55
76352;BME280;65179;47.786;19.138;2023-08-06T08:36:30;98721.41;;;18.11;96.45
76352;BME280;65179;47.786;19.138;2023-08-06T08:38:55;98732.78;;;18.18;96.45
76352;BME280;65179;47.786;19.138;2023-08-06T08:41:21;98745.28;;;18.24;95.88
76352;BME280;65179;47.786;19.138;2023-08-06T08:43:50;98744.59;;;18.18;95.96
76352;BME280;65179;47.786;19.138;2023-08-06T08:46:18;98744.63;;;18.05;95.87
76352;BME280;65179;47.786;19.138;2023-08-06T08:48:43;98751.09;;;18.23;96.04
76352;BME280;65179;47.786;19.138;2023-08-06T08:51:10;98742.53;;;18.24;95.68
76352;BME280;65179;47.786;19.138;2023-08-06T08:53:37;98741.03;;;18.04;95.81
76352;BME280;65179;47.786;19.138;2023-08-06T08:56:05;98743.78;;;18.04;96.33
76352;BME280;65179;47.786;19.138;2023-08-06T08:58:31;98748.12;;;17.83;96.63
76352;BME280;65179;47.786;19.138;2023-08-06T09:00:57;98744.97;;;17.76;96.56
76352;BME280;65179;47.786;19.138;2023-08-06T09:03:23;98753.59;;;17.83;96.67
76352;BME280;65179;47.786;19.138;2023-08-06T09:05:52;98752.59;;;17.52;96.55
76352;BME280;65179;47.786;19.138;2023-08-06T09:08:19;98755.56;;;17.69;97.11
76352;BME280;65179;47.786;19.138;2023-08-06T09:10:48;98755.94;;;17.76;95.81
76352;BME280;65179;47.786;19.138;2023-08-06T09:13:13;98758.19;;;17.74;96.07
76352;BME280;65179;47.786;19.138;2023-08-06T09:15:39;98756.47;;;17.65;96.22
76352;BME280;65179;47.786;19.138;2023-08-06T09:18:11;98755.66;;;17.78;96.40
76352;BME280;65179;47.786;19.138;2023-08-06T09:20:38;98758.50;;;17.86;95.96
76352;BME280;65179;47.786;19.138;2023-08-06T09:23:13;98742.22;;;17.76;96.62
76352;BME280;65179;47.786;19.138;2023-08-06T09:25:39;98742.53;;;17.88;96.29
76352;BME280;65179;47.786;19.138;2023-08-06T09:28:05;98739.53;;;17.98;96.12
76352;BME280;65179;47.786;19.138;2023-08-06T09:30:35;98747.75;;;18.12;96.57
76352;BME280;65179;47.786;19.138;2023-08-06T09:33:01;98745.31;;;18.10;95.88
76352;BME280;65179;47.786;19.138;2023-08-06T09:35:30;98743.34;;;18.25;95.50
76352;BME280;65179;47.786;19.138;2023-08-06T09:38:05;98745.34;;;18.33;95.33
76352;BME280;65179;47.786;19.138;2023-08-06T09:40:33;98745.63;;;18.09;95.41
76352;BME280;65179;47.786;19.138;2023-08-06T09:42:59;98745.44;;;18.05;96.17
76352;BME280;65179;47.786;19.138;2023-08-06T09:45:30;98746.59;;;18.27;95.31
76352;BME280;65179;47.786;19.138;2023-08-06T09:47:58;98741.16;;;18.49;94.51
76352;BME280;65179;47.786;19.138;2023-08-06T09:50:33;98744.28;;;18.56;94.20
76352;BME280;65179;47.786;19.138;2023-08-06T09:53:08;98720.66;;;18.77;93.29
76352;BME280;65179;47.786;19.138;2023-08-06T09:55:34;98727.91;;;18.73;93.11
76352;BME280;65179;47.786;19.138;2023-08-06T09:58:00;98723.22;;;18.73;92.52
76352;BME280;65179;47.786;19.138;2023-08-06T10:00:26;98726.94;;;18.69;92.94
76352;BME280;65179;47.786;19.138;2023-08-06T10:02:52;98732.66;;;18.81;92.53
76352;BME280;65179;47.786;19.138;2023-08-06T10:05:20;98738.47;;;18.79;92.27
76352;BME280;65179;47.786;19.138;2023-08-06T10:07:47;98749.16;;;18.59;92.55
76352;BME280;65179;47.786;19.138;2023-08-06T10:10:12;98754.16;;;18.57;91.99
76352;BME280;65179;47.786;19.138;2023-08-06T10:12:47;98768.28;;;18.64;92.02
76352;BME280;65179;47.786;19.138;2023-08-06T10:15:15;98788.22;;;18.47;92.74
76352;BME280;65179;47.786;19.138;2023-08-06T10:17:43;98797.94;;;17.90;92.90
76352;BME280;65179;47.786;19.138;2023-08-06T10:20:11;98809.53;;;17.87;92.90
76352;BME280;65179;47.786;19.138;2023-08-06T10:22:42;98822.34;;;17.92;92.80
76352;BME280;65179;47.786;19.138;2023-08-06T10:25:09;98821.34;;;17.88;93.11
76352;BME280;65179;47.786;19.138;2023-08-06T10:32:49;98816.12;;;18.00;91.78
76352;BME280;65179;47.786;19.138;2023-08-06T10:38:08;98819.94;;;18.04;91.83
76352;BME280;65179;47.786;19.138;2023-08-06T10:40:36;98810.72;;;18.08;91.12
76352;BME280;65179;47.786;19.138;2023-08-06T10:43:03;98810.34;;;18.01;90.16
76352;BME280;65179;47.786;19.138;2023-08-06T10:45:28;98800.38;;;18.05;90.90
76352;BME280;65179;47.786;19.138;2023-08-06T10:47:56;98815.44;;;18.08;90.81
76352;BME280;65179;47.786;19.138;2023-08-06T10:50:25;98796.31;;;18.03;91.03
76352;BME280;65179;47.786;19.138;2023-08-06T10:52:51;98791.31;;;17.91;91.68
76352;BME280;65179;47.786;19.138;2023-08-06T10:55:27;98802.81;;;18.07;92.08
76352;BME280;65179;47.786;19.138;2023-08-06T10:57:53;98801.62;;;17.86;92.10
76352;BME280;65179;47.786;19.138;2023-08-06T11:00:21;98793.66;;;17.98;92.15
76352;BME280;65179;47.786;19.138;2023-08-06T11:02:48;98801.28;;;18.14;91.87
76352;BME280;65179;47.786;19.138;2023-08-06T11:05:14;98807.88;;;18.27;91.32
76352;BME280;65179;47.786;19.138;2023-08-06T11:07:40;98807.56;;;18.29;92.20
76352;BME280;65179;47.786;19.138;2023-08-06T11:10:07;98801.16;;;18.47;90.66
76352;BME280;65179;47.786;19.138;2023-08-06T11:12:33;98798.47;;;18.42;91.34
76352;BME280;65179;47.786;19.138;2023-08-06T11:15:00;98802.16;;;18.37;90.18
76352;BME280;65179;47.786;19.138;2023-08-06T11:17:28;98801.50;;;18.54;90.42
76352;BME280;65179;47.786;19.138;2023-08-06T11:19:54;98802.31;;;18.54;89.94
76352;BME280;65179;47.786;19.138;2023-08-06T11:22:21;98803.87;;;18.47;88.53
76352;BME280;65179;47.786;19.138;2023-08-06T11:24:47;98814.13;;;18.55;87.53
76352;BME280;65179;47.786;19.138;2023-08-06T11:27:14;98813.19;;;18.73;87.65
76352;BME280;65179;47.786;19.138;2023-08-06T11:29:40;98818.53;;;18.78;87.31
76352;BME280;65179;47.786;19.138;2023-08-06T11:32:07;98823.16;;;18.91;86.71
76352;BME280;65179;47.786;19.138;2023-08-06T11:34:33;98826.81;;;19.00;85.93
76352;BME280;65179;47.786;19.138;2023-08-06T11:36:58;98826.25;;;18.89;86.19
76352;BME280;65179;47.786;19.138;2023-08-06T11:39:24;98833.84;;;18.70;84.64
76352;BME280;65179;47.786;19.138;2023-08-06T11:41:49;98838.06;;;18.90;85.78
76352;BME280;65179;47.786;19.138;2023-08-06T11:44:15;98830.25;;;18.83;85.50
76352;BME280;65179;47.786;19.138;2023-08-06T11:46:55;98818.03;;;18.76;85.15
76352;BME280;65179;47.786;19.138;2023-08-06T11:49:37;98820.06;;;18.84;84.46
76352;BME280;65179;47.786;19.138;2023-08-06T11:54:36;98823.44;;;19.03;84.53
76352;BME280;65179;47.786;19.138;2023-08-06T11:57:03;98823.94;;;19.05;83.71
76352;BME280;65179;47.786;19.138;2023-08-06T11:59:30;98822.53;;;19.38;83.08
76352;BME280;65179;47.786;19.138;2023-08-06T12:01:55;98830.91;;;19.33;82.22
76352;BME280;65179;47.786;19.138;2023-08-06T12:04:20;98817.91;;;19.25;82.39
76352;BME280;65179;47.786;19.138;2023-08-06T12:06:46;98825.31;;;19.16;82.43
76352;BME280;65179;47.786;19.138;2023-08-06T12:09:11;98818.66;;;19.17;82.54
76352;BME280;65179;47.786;19.138;2023-08-06T12:11:37;98822.94;;;19.32;81.50
76352;BME280;65179;47.786;19.138;2023-08-06T12:14:02;98821.16;;;19.27;80.45
76352;BME280;65179;47.786;19.138;2023-08-06T12:16:28;98834.00;;;19.62;80.62
76352;BME280;65179;47.786;19.138;2023-08-06T12:18:53;98836.84;;;19.80;79.36
76352;BME280;65179;47.786;19.138;2023-08-06T12:21:19;98822.97;;;19.93;77.20
76352;BME280;65179;47.786;19.138;2023-08-06T12:23:44;98829.63;;;20.66;76.60
76352;BME280;65179;47.786;19.138;2023-08-06T12:26:10;98828.81;;;21.17;75.28
76352;BME280;65179;47.786;19.138;2023-08-06T12:28:35;98820.06;;;21.14;75.22
76352;BME280;65179;47.786;19.138;2023-08-06T12:31:00;98823.94;;;20.79;74.90
76352;BME280;65179;47.786;19.138;2023-08-06T12:33:26;98836.75;;;20.41;74.86
76352;BME280;65179;47.786;19.138;2023-08-06T12:35:51;98840.81;;;20.52;76.05
76352;BME280;65179;47.786;19.138;2023-08-06T12:38:20;98832.38;;;20.49;75.48
76352;BME280;65179;47.786;19.138;2023-08-06T12:40:45;98834.75;;;20.24;76.71
76352;BME280;65179;47.786;19.138;2023-08-06T12:43:11;98838.66;;;20.32;75.93
76352;BME280;65179;47.786;19.138;2023-08-06T12:45:36;98847.84;;;20.19;77.48
76352;BME280;65179;47.786;19.138;2023-08-06T12:48:02;98847.59;;;20.29;77.10
76352;BME280;65179;47.786;19.138;2023-08-06T12:50:28;98857.34;;;19.96;77.93
76352;BME280;65179;47.786;19.138;2023-08-06T12:52:54;98853.50;;;20.05;77.37
76352;BME280;65179;47.786;19.138;2023-08-06T12:55:19;98863.41;;;20.15;77.81
76352;BME280;65179;47.786;19.138;2023-08-06T12:57:45;98858.44;;;19.95;77.98
76352;BME280;65179;47.786;19.138;2023-08-06T13:00:11;98860.72;;;19.93;78.29
76352;BME280;65179;47.786;19.138;2023-08-06T13:02:37;98860.63;;;20.15;78.05
76352;BME280;65179;47.786;19.138;2023-08-06T13:05:03;98854.16;;;20.19;78.11
76352;BME280;65179;47.786;19.138;2023-08-06T13:07:31;98856.84;;;20.33;77.57